Terminal Aerodrome Forecast
Issued by NWS Central Illinois

Home | Current Version | Previous Version | Text Only | Print | Product List | Glossary On
Versions: 1 2 3 4 5 6 7 8 9 10 11 12 13 14 15 16 17 18
000
FTUS43 KILX 280500
TAFPIA
TAF
KPIA 280520Z 2806/2906 VRB04KT P6SM BKN080
     FM281300 16011G16KT P6SM SCT080
     FM281700 18013G23KT P6SM SCT150
     FM290000 18010KT P6SM BKN200=

USA.gov is the U.S. government's official web portal to all federal, state and local government web resources and services.